Time;durP1;ratioP1;P1;durP2;ratioP2;P2;SDS_P1;SDS_P2;PMS_P1;PMS_P2;Temp;Humidity;BMP_temperature;BMP_pressure;BME280_temperature;BME280_humidity;BME280_pressure;Samples;Min_cycle;Max_cycle;Signal;HPM_P1;HPM_P2
2024/01/29 00:00:49;;;;;;;9.52;5.85;;;;;;;-1.35;61.48;101597.63;6276302;22;20014;-57
2024/01/29 00:03:14;;;;;;;8.77;5.85;;;;;;;-1.28;61.56;101616.88;6276066;22;20112;-62
2024/01/29 00:05:40;;;;;;;10.93;6.15;;;;;;;-1.23;61.38;101616.84;6275687;22;20254;-60
2024/01/29 00:08:06;;;;;;;10.32;6.32;;;;;;;-1.23;60.65;101614.22;6275882;22;20004;-61
2024/01/29 00:10:31;;;;;;;9.82;6.35;;;;;;;-1.20;61.61;101611.63;6275741;22;20019;-59
2024/01/29 00:12:57;;;;;;;10.73;7.03;;;;;;;-1.22;61.65;101594.94;6275556;22;20281;-61
2024/01/29 00:15:22;;;;;;;10.02;6.28;;;;;;;-1.24;61.05;101589.72;6275914;22;20035;-62
2024/01/29 00:17:48;;;;;;;10.52;6.70;;;;;;;-1.32;61.13;101589.72;6275854;22;20000;-61
2024/01/29 00:20:13;;;;;;;11.95;6.93;;;;;;;-1.34;61.44;101594.13;6275779;22;20038;-60
2024/01/29 00:22:39;;;;;;;11.57;7.30;;;;;;;-1.36;61.66;101602.88;6275126;22;20431;-59
2024/01/29 00:25:05;;;;;;;11.18;6.93;;;;;;;-1.41;61.43;101596.75;6275877;22;20010;-59
2024/01/29 00:27:31;;;;;;;11.27;7.45;;;;;;;-1.45;61.53;101595.88;6275801;22;20000;-60
2024/01/29 00:29:56;;;;;;;11.43;7.68;;;;;;;-1.46;61.30;101604.63;6275319;22;20018;-62
2024/01/29 00:32:22;;;;;;;12.90;7.63;;;;;;;-1.83;62.15;101563.53;6276425;22;20038;-64
2024/01/29 00:34:48;;;;;;;11.85;7.53;;;;;;;-1.53;62.00;101608.16;6276056;22;20010;-61
2024/01/29 00:37:13;;;;;;;11.63;7.35;;;;;;;-1.52;62.06;101612.53;6276005;22;20011;-59
2024/01/29 00:39:39;;;;;;;12.85;7.70;;;;;;;-1.76;61.82;101575.81;6272929;22;20389;-60
2024/01/29 00:42:05;;;;;;;12.95;8.10;;;;;;;-1.59;62.04;101624.81;6274677;22;20050;-61
2024/01/29 00:44:31;;;;;;;13.25;8.20;;;;;;;-1.50;62.16;101630.06;6275685;22;20069;-59
2024/01/29 00:46:56;;;;;;;12.98;7.78;;;;;;;-1.47;61.99;101623.91;6275508;22;20000;-65
2024/01/29 00:49:22;;;;;;;12.70;8.18;;;;;;;-1.43;62.13;101622.16;6275907;22;20003;-60
2024/01/29 00:51:47;;;;;;;12.80;7.90;;;;;;;-1.38;61.99;101613.41;6277260;22;20297;-58
2024/01/29 00:54:13;;;;;;;12.32;7.65;;;;;;;-1.34;62.02;101620.41;6276680;22;20015;-54
2024/01/29 00:56:38;;;;;;;12.98;8.52;;;;;;;-1.35;62.40;101634.41;6277692;22;20018;-54
2024/01/29 00:59:04;;;;;;;11.25;7.53;;;;;;;-1.37;62.02;101630.91;6277031;22;20393;-58
2024/01/29 01:01:29;;;;;;;12.93;8.32;;;;;;;-1.41;61.94;101621.28;6277468;22;20008;-58
2024/01/29 01:03:55;;;;;;;11.38;7.88;;;;;;;-1.39;62.01;101616.91;6278266;22;20007;-57
2024/01/29 01:06:21;;;;;;;12.07;7.63;;;;;;;-1.41;62.23;101623.91;6277478;22;20082;-58
2024/01/29 01:08:46;;;;;;;12.55;7.85;;;;;;;-1.41;61.81;101618.66;6277774;22;20030;-54
2024/01/29 01:11:12;;;;;;;10.68;7.40;;;;;;;-1.40;62.18;101607.28;6277794;22;20039;-56
2024/01/29 01:13:37;;;;;;;12.05;7.38;;;;;;;-1.38;62.36;101617.75;6277994;22;20000;-54
2024/01/29 01:16:03;;;;;;;13.15;7.78;;;;;;;-1.36;62.10;101616.91;6276496;22;20089;-60
2024/01/29 01:18:29;;;;;;;12.50;6.80;;;;;;;-1.36;62.67;101616.00;6277458;22;20004;-64
2024/01/29 01:20:55;;;;;;;10.43;6.90;;;;;;;-1.32;62.28;101620.41;6277587;22;19999;-59
2024/01/29 01:23:20;;;;;;;11.27;7.40;;;;;;;-1.34;62.21;101620.41;6277693;22;20011;-60
2024/01/29 01:25:46;;;;;;;11.57;7.38;;;;;;;-1.33;62.33;101627.41;6277491;22;20285;-58
2024/01/29 01:28:11;;;;;;;11.77;7.65;;;;;;;-1.32;62.06;101618.63;6277262;22;20122;-58
2024/01/29 01:30:37;;;;;;;11.68;7.93;;;;;;;-1.32;62.47;101620.41;6277351;22;20008;-56
2024/01/29 01:33:02;;;;;;;11.05;7.25;;;;;;;-1.38;61.77;101613.41;6277669;22;20070;-60
2024/01/29 01:35:28;;;;;;;10.52;7.05;;;;;;;-1.39;61.76;101611.66;6277599;22;20071;-58
2024/01/29 01:37:53;;;;;;;11.25;7.05;;;;;;;-1.39;62.21;101622.16;6277398;22;20294;-56
2024/01/29 01:40:19;;;;;;;12.05;7.13;;;;;;;-1.42;62.25;101622.19;6277043;22;20000;-57
2024/01/29 01:42:47;;;;;;;10.52;6.82;;;;;;;-1.42;62.20;101616.91;6275344;22;20012;-60
2024/01/29 01:45:13;;;;;;;10.80;6.75;;;;;;;-1.50;62.19;101618.66;6277385;22;20031;-62
2024/01/29 01:47:39;;;;;;;11.30;7.18;;;;;;;-1.46;61.98;101628.28;6277187;22;20011;-58
2024/01/29 01:50:08;;;;;;;10.93;6.78;;;;;;;-1.48;62.04;101616.91;6275923;22;19999;-54
2024/01/29 01:52:35;;;;;;;10.00;6.80;;;;;;;-1.52;62.65;101629.19;6277520;22;20058;-59
2024/01/29 01:55:01;;;;;;;11.27;6.78;;;;;;;-1.88;62.47;101563.56;6277408;22;20008;-64
2024/01/29 01:57:28;;;;;;;10.13;6.43;;;;;;;-1.59;62.43;101624.81;6277654;22;20008;-59
2024/01/29 01:59:54;;;;;;;8.90;6.10;;;;;;;-1.69;62.33;101608.16;6277080;22;20018;-53
2024/01/29 02:02:20;;;;;;;9.93;6.25;;;;;;;-1.69;62.48;101602.91;6276878;22;19999;-58
2024/01/29 02:04:46;;;;;;;10.15;6.20;;;;;;;-1.71;62.58;101606.44;6277563;22;20004;-62
2024/01/29 02:07:11;;;;;;;9.27;6.00;;;;;;;-1.66;62.56;101628.31;6277365;22;20329;-58
2024/01/29 02:09:37;;;;;;;9.07;6.18;;;;;;;-1.74;62.21;101612.56;6276540;22;20022;-59
2024/01/29 02:12:03;;;;;;;10.80;6.00;;;;;;;-1.69;62.39;101623.06;6276838;22;20012;-61
2024/01/29 02:14:29;;;;;;;10.13;6.30;;;;;;;-1.69;62.31;101629.19;6277147;22;20004;-62
2024/01/29 02:16:54;;;;;;;9.93;6.45;;;;;;;-1.71;61.99;101630.94;6276429;22;20088;-58
2024/01/29 02:19:40;;;;;;;8.52;6.00;;;;;;;-1.68;62.39;101643.22;6275895;22;20094;-61
2024/01/29 02:22:05;;;;;;;9.82;6.35;;;;;;;-2.03;62.24;101581.94;6276792;22;20405;-61
2024/01/29 02:24:31;;;;;;;8.63;6.03;;;;;;;-1.76;62.75;101622.19;6276885;22;20000;-57
2024/01/29 02:26:56;;;;;;;9.88;6.38;;;;;;;-1.76;62.93;101619.56;6276643;22;20082;-61
2024/01/29 02:29:21;;;;;;;9.25;6.18;;;;;;;-1.73;62.43;101622.19;6276924;22;20737;-60
2024/01/29 02:31:47;;;;;;;9.63;5.85;;;;;;;-1.68;62.38;101630.06;6276841;22;20030;-61
2024/01/29 02:34:12;;;;;;;9.15;6.05;;;;;;;-1.71;62.83;101630.94;6276343;22;20008;-57
2024/01/29 02:36:38;;;;;;;9.00;5.78;;;;;;;-1.70;62.56;101627.44;6276816;22;20003;-59
2024/01/29 02:39:03;;;;;;;9.40;6.07;;;;;;;-1.76;62.85;101616.94;6276724;22;19996;-64
2024/01/29 02:41:29;;;;;;;8.88;5.95;;;;;;;-1.71;62.87;101611.69;6277034;22;19995;-59
2024/01/29 02:43:55;;;;;;;9.27;6.47;;;;;;;-1.70;63.34;101622.19;6276721;22;20340;-62
2024/01/29 02:46:20;;;;;;;9.32;6.32;;;;;;;-1.69;62.88;101623.06;6276789;22;20012;-53
2024/01/29 02:48:46;;;;;;;8.35;6.03;;;;;;;-1.70;62.94;101623.94;6276951;22;19996;-60
2024/01/29 02:51:11;;;;;;;12.07;6.80;;;;;;;-1.68;62.74;101619.56;6275326;22;20112;-55
2024/01/29 02:53:37;;;;;;;9.48;6.65;;;;;;;-1.75;62.91;101606.44;6276673;22;20423;-60
2024/01/29 02:56:03;;;;;;;9.35;6.47;;;;;;;-1.74;62.68;101613.44;6276336;22;20099;-61
2024/01/29 02:58:29;;;;;;;9.70;6.55;;;;;;;-1.70;63.23;101624.81;6276786;22;20069;-59
2024/01/29 03:00:55;;;;;;;9.88;6.05;;;;;;;-1.93;62.99;101598.56;6276602;22;20006;-60
2024/01/29 03:03:20;;;;;;;11.25;6.72;;;;;;;-1.73;62.80;101606.44;6276417;22;20008;-60
2024/01/29 03:05:46;;;;;;;9.70;6.00;;;;;;;-1.71;62.73;101622.19;6276198;22;19996;-60
2024/01/29 03:08:12;;;;;;;9.90;6.55;;;;;;;-1.75;62.75;101613.44;6276352;22;20015;-61
2024/01/29 03:10:37;;;;;;;9.65;6.22;;;;;;;-1.74;62.57;101613.44;6276416;22;20062;-61
2024/01/29 03:13:03;;;;;;;9.00;5.82;;;;;;;-1.74;62.53;101615.19;6276648;22;20004;-60
2024/01/29 03:15:28;;;;;;;10.82;6.60;;;;;;;-1.78;62.40;101597.69;6274221;22;20082;-60
2024/01/29 03:17:54;;;;;;;9.35;6.15;;;;;;;-1.79;62.96;101591.59;6276328;22;20798;-63
2024/01/29 03:20:19;;;;;;;11.57;6.82;;;;;;;-1.78;62.56;101598.59;6276364;22;20004;-63
2024/01/29 03:22:45;;;;;;;8.95;5.97;;;;;;;-1.77;62.60;101605.56;6276356;22;20011;-62
2024/01/29 03:25:10;;;;;;;9.45;6.05;;;;;;;-1.84;62.60;101598.56;6275884;22;20078;-60
2024/01/29 03:27:36;;;;;;;9.95;6.30;;;;;;;-1.82;63.00;101599.44;6276658;22;20006;-62
2024/01/29 03:30:02;;;;;;;9.13;6.10;;;;;;;-1.76;63.28;101595.94;6276244;22;20018;-62
2024/01/29 03:32:30;;;;;;;10.50;6.55;;;;;;;-1.74;62.75;101600.31;6275929;22;20004;-59
2024/01/29 03:34:56;;;;;;;10.85;6.75;;;;;;;-1.76;62.55;101599.44;6275836;22;20709;-61
2024/01/29 03:37:21;;;;;;;10.98;6.88;;;;;;;-1.68;62.66;101594.19;6275684;22;20083;-63
2024/01/29 03:39:47;;;;;;;10.50;7.03;;;;;;;-1.66;62.61;101589.81;6275806;22;20006;-61
2024/01/29 03:42:13;;;;;;;9.75;6.75;;;;;;;-1.64;63.14;101581.91;6276042;22;20015;-58
2024/01/29 03:44:38;;;;;;;9.30;6.40;;;;;;;-1.61;62.60;101584.53;6275791;22;20008;-59
2024/01/29 03:47:04;;;;;;;10.10;6.78;;;;;;;-1.85;62.63;101540.81;6275078;22;20094;-60
2024/01/29 03:49:29;;;;;;;12.93;7.20;;;;;;;-1.55;63.03;101583.66;6275388;22;20010;-60
2024/01/29 03:51:55;;;;;;;10.13;6.88;;;;;;;-1.53;63.09;101579.28;6275874;22;20030;-61
2024/01/29 03:54:20;;;;;;;10.75;6.68;;;;;;;-1.55;62.62;101573.16;6276110;22;20090;-57
2024/01/29 03:56:46;;;;;;;10.63;6.38;;;;;;;-1.52;62.68;101579.28;6275932;22;20007;-61
2024/01/29 03:59:11;;;;;;;9.02;6.20;;;;;;;-1.52;62.53;101591.53;6275942;22;20000;-58
2024/01/29 04:01:38;;;;;;;10.40;7.03;;;;;;;-1.48;62.29;101601.16;6276478;22;20027;-60
2024/01/29 04:04:04;;;;;;;11.55;7.05;;;;;;;-1.52;62.66;101594.16;6276267;22;20060;-62
2024/01/29 04:06:30;;;;;;;11.10;6.80;;;;;;;-1.55;62.55;101586.28;6275987;22;20011;-59
2024/01/29 04:08:56;;;;;;;11.88;6.82;;;;;;;-1.52;62.67;101596.78;6276011;22;20004;-62
2024/01/29 04:11:21;;;;;;;10.55;6.90;;;;;;;-1.56;62.88;101603.81;6275627;22;20392;-62
2024/01/29 04:13:47;;;;;;;13.07;7.20;;;;;;;-1.52;62.62;101604.66;6275670;22;20004;-62
2024/01/29 04:16:12;;;;;;;9.98;6.57;;;;;;;-1.51;62.43;101606.41;6276115;22;20080;-60
2024/01/29 04:18:38;;;;;;;10.15;6.25;;;;;;;-1.53;62.63;101603.81;6276364;22;20008;-62
2024/01/29 04:21:06;;;;;;;10.80;7.13;;;;;;;-1.49;62.65;101615.16;6276211;22;20011;-60
2024/01/29 04:23:33;;;;;;;11.23;6.85;;;;;;;-1.46;62.36;101604.63;6274649;22;20003;-63
2024/01/29 04:25:59;;;;;;;10.75;6.78;;;;;;;-1.41;62.71;101612.53;6276881;22;20000;-61
2024/01/29 04:28:24;;;;;;;10.60;7.07;;;;;;;-1.39;62.22;101613.38;6277720;22;20014;-59
2024/01/29 04:30:49;;;;;;;11.23;7.00;;;;;;;-1.38;62.28;101609.88;6277519;22;20022;-59
2024/01/29 04:33:15;;;;;;;10.57;6.75;;;;;;;-1.35;62.30;101621.28;6278055;22;20053;-60
2024/01/29 04:35:40;;;;;;;11.13;6.70;;;;;;;-1.42;62.01;101610.78;6277019;22;20017;-62
2024/01/29 04:38:06;;;;;;;12.23;7.15;;;;;;;-1.38;62.34;101616.03;6278255;22;19999;-62
2024/01/29 04:40:33;;;;;;;10.52;6.97;;;;;;;-1.36;61.92;101608.13;6277488;22;20417;-58
2024/01/29 04:42:58;;;;;;;12.05;7.03;;;;;;;-1.38;62.32;101607.25;6278088;22;20008;-62
2024/01/29 04:45:24;;;;;;;12.45;7.68;;;;;;;-1.35;62.53;101607.25;6277810;22;20107;-62
2024/01/29 04:47:49;;;;;;;12.25;7.28;;;;;;;-1.32;62.68;101607.28;6276511;22;20000;-60
2024/01/29 04:50:15;;;;;;;9.98;6.40;;;;;;;-1.28;62.06;101597.59;6276887;22;20579;-60
2024/01/29 04:52:40;;;;;;;11.45;7.05;;;;;;;-1.29;61.76;101602.00;6278177;22;19999;-65
2024/01/29 04:55:06;;;;;;;9.48;6.18;;;;;;;-1.32;62.09;101605.50;6278180;22;20096;-62
2024/01/29 04:57:32;;;;;;;11.07;6.95;;;;;;;-1.31;62.55;101604.63;6277426;22;20026;-62
2024/01/29 04:59:58;;;;;;;11.70;6.95;;;;;;;-1.27;61.92;101599.34;6277347;22;19996;-59
2024/01/29 05:02:23;;;;;;;10.63;6.55;;;;;;;-1.24;62.28;101607.22;6277386;22;20385;-61
2024/01/29 05:04:49;;;;;;;10.07;6.28;;;;;;;-1.24;62.04;101600.22;6277831;22;20000;-61
2024/01/29 05:07:14;;;;;;;9.35;6.57;;;;;;;-1.26;61.99;101598.47;6277573;22;20308;-62
2024/01/29 05:09:40;;;;;;;10.88;6.97;;;;;;;-1.26;62.16;101595.84;6277837;22;20000;-59
2024/01/29 05:12:06;;;;;;;10.75;6.72;;;;;;;-1.27;62.57;101597.63;6277002;22;20031;-60
2024/01/29 05:14:32;;;;;;;10.48;6.53;;;;;;;-1.21;62.14;101605.47;6277810;22;20170;-62
2024/01/29 05:16:57;;;;;;;10.75;6.82;;;;;;;-1.20;61.96;101590.59;6277041;22;20027;-59
2024/01/29 05:19:23;;;;;;;9.07;6.28;;;;;;;-1.27;62.28;101586.22;6276021;22;20014;-58
2024/01/29 05:21:48;;;;;;;11.98;6.80;;;;;;;-1.20;62.19;101591.44;6276315;22;20035;-62
2024/01/29 05:24:14;;;;;;;11.77;7.32;;;;;;;-1.20;61.91;101587.97;6277597;22;20004;-61
2024/01/29 05:26:39;;;;;;;11.80;7.57;;;;;;;-1.18;62.40;101583.56;6277061;22;20000;-62
2024/01/29 05:29:05;;;;;;;14.18;7.70;;;;;;;-1.19;62.08;101584.44;6277015;22;20031;-60
2024/01/29 05:31:30;;;;;;;12.45;8.05;;;;;;;-1.20;62.05;101578.31;6276521;22;20014;-59
2024/01/29 05:33:56;;;;;;;12.52;8.13;;;;;;;-1.14;61.87;101587.03;6276782;22;20011;-62
2024/01/29 05:36:21;;;;;;;14.73;8.90;;;;;;;-1.19;62.30;101581.81;6277247;22;19999;-66
2024/01/29 05:38:47;;;;;;;14.98;9.05;;;;;;;-1.17;62.78;101595.84;6276714;22;20007;-60
2024/01/29 05:41:12;;;;;;;13.05;8.35;;;;;;;-1.13;62.54;101592.31;6277511;22;20006;-62
2024/01/29 05:43:38;;;;;;;13.68;8.35;;;;;;;-1.10;62.63;101601.91;6277059;22;20039;-60
2024/01/29 05:46:03;;;;;;;14.05;8.35;;;;;;;-1.06;62.59;101599.28;6277139;22;20026;-60
2024/01/29 05:48:29;;;;;;;12.18;7.85;;;;;;;-1.06;62.37;101598.44;6277177;22;20343;-60
2024/01/29 05:50:55;;;;;;;12.15;8.18;;;;;;;-1.05;62.28;101608.91;6276997;22;20046;-64
2024/01/29 05:53:20;;;;;;;14.02;8.45;;;;;;;-1.06;61.92;101615.06;6277859;22;20010;-56
2024/01/29 05:55:46;;;;;;;12.23;7.80;;;;;;;-1.08;62.25;101619.44;6277154;22;20008;-60
2024/01/29 05:58:12;;;;;;;12.70;8.00;;;;;;;-1.36;62.41;101573.97;6276383;22;20086;-62
2024/01/29 06:00:38;;;;;;;12.45;8.13;;;;;;;-1.05;62.83;101621.22;6276778;22;20027;-58
2024/01/29 06:03:03;;;;;;;12.75;7.78;;;;;;;-1.01;62.78;101630.81;6277007;22;20011;-62
2024/01/29 06:05:29;;;;;;;14.05;8.35;;;;;;;-1.01;62.32;101621.16;6276992;22;20071;-56
2024/01/29 06:07:55;;;;;;;12.98;7.70;;;;;;;-0.96;62.69;101630.81;6276692;22;20454;-59
2024/01/29 06:10:21;;;;;;;12.55;7.68;;;;;;;-1.01;62.29;101618.53;6276881;22;20000;-62
2024/01/29 06:12:50;;;;;;;12.80;7.68;;;;;;;-0.95;62.43;101625.53;6276615;22;20026;-61
2024/01/29 06:15:15;;;;;;;11.30;7.03;;;;;;;-0.99;62.28;101608.03;6276880;22;20004;-64
2024/01/29 06:17:41;;;;;;;12.10;7.53;;;;;;;-1.14;62.32;101594.94;6277297;22;20018;-60
2024/01/29 06:20:07;;;;;;;13.70;7.65;;;;;;;-0.90;62.76;101628.16;6276872;22;20023;-60
2024/01/29 06:22:33;;;;;;;13.15;7.82;;;;;;;-0.85;62.71;101628.13;6276771;22;19996;-58
2024/01/29 06:24:58;;;;;;;12.35;7.65;;;;;;;-0.82;62.07;101621.09;6275723;22;20079;-55
2024/01/29 06:27:24;;;;;;;11.85;7.65;;;;;;;-0.75;61.70;101619.31;6276020;22;20004;-61
2024/01/29 06:29:49;;;;;;;12.77;7.70;;;;;;;-0.70;61.63;101621.94;6276427;22;20389;-53
2024/01/29 06:32:15;;;;;;;11.10;6.75;;;;;;;-0.67;61.50;101612.25;6277077;22;20436;-51
2024/01/29 06:34:41;;;;;;;11.60;7.13;;;;;;;-0.69;61.17;101616.66;6276683;22;20113;-56
2024/01/29 06:37:06;;;;;;;11.13;6.65;;;;;;;-0.73;61.72;101601.78;6276802;22;20018;-59
2024/01/29 06:39:32;;;;;;;12.38;6.82;;;;;;;-0.90;61.68;101563.28;6275994;22;19996;-56
2024/01/29 06:41:58;;;;;;;11.85;6.85;;;;;;;-0.89;61.00;101562.41;6275424;22;20007;-53
2024/01/29 06:44:24;;;;;;;12.85;6.88;;;;;;;-0.60;61.23;101608.75;6275683;22;20012;-55
2024/01/29 06:46:50;;;;;;;10.05;6.18;;;;;;;-0.57;61.27;101607.81;6274834;22;20012;-59
2024/01/29 06:49:30;;;;;;;14.15;7.68;;;;;;;-0.46;61.76;101613.03;6276670;22;19999;-60
2024/01/29 06:51:56;;;;;;;14.70;7.13;;;;;;;-0.64;61.33;101600.84;6276126;22;20000;-54
2024/01/29 06:54:21;;;;;;;14.35;6.63;;;;;;;-0.54;61.02;101607.81;6276569;22;20003;-56
2024/01/29 06:56:47;;;;;;;14.45;7.25;;;;;;;-0.65;61.23;101578.06;6276823;22;20025;-56
2024/01/29 06:59:13;;;;;;;13.35;7.05;;;;;;;-0.45;61.17;101597.25;6277235;22;20014;-63
2024/01/29 07:01:39;;;;;;;12.07;7.28;;;;;;;-0.46;61.16;101584.97;6276679;22;20014;-65
2024/01/29 07:04:04;;;;;;;12.98;7.53;;;;;;;-0.45;60.44;101580.56;6276534;22;20034;-64
2024/01/29 07:06:30;;;;;;;18.40;8.13;;;;;;;-0.38;60.60;101587.53;6276414;22;20065;-63
2024/01/29 07:08:57;;;;;;;13.60;8.23;;;;;;;-0.65;61.12;101518.41;6276590;22;20003;-63
2024/01/29 07:11:23;;;;;;;12.73;7.82;;;;;;;-0.40;60.75;101543.69;6276061;22;20061;-64
2024/01/29 07:13:48;;;;;;;15.95;7.93;;;;;;;-0.23;60.50;101570.78;6276506;22;20068;-60
2024/01/29 07:16:14;;;;;;;16.33;8.55;;;;;;;-0.30;60.65;101559.41;6276608;22;20091;-64
2024/01/29 07:18:39;;;;;;;13.10;7.93;;;;;;;-0.17;60.67;101576.00;6276291;22;20015;-64
2024/01/29 07:21:06;;;;;;;14.57;7.82;;;;;;;-0.40;60.37;101547.19;6274932;22;19996;-62
2024/01/29 07:23:32;;;;;;;12.82;8.43;;;;;;;-0.16;60.89;101592.63;6271176;22;20010;-60
2024/01/29 07:25:57;;;;;;;15.82;8.07;;;;;;;-0.22;60.05;101572.53;6269707;22;20007;-68
2024/01/29 07:28:23;;;;;;;13.93;8.45;;;;;;;-0.15;60.30;101576.84;6273921;22;19995;-62
2024/01/29 07:30:48;;;;;;;17.90;12.60;;;;;;;-0.09;60.23;101586.47;6275577;22;19999;-63
2024/01/29 07:33:14;;;;;;;13.00;9.45;;;;;;;-0.10;60.37;101584.72;6275687;22;20087;-64
2024/01/29 07:35:39;;;;;;;13.70;8.73;;;;;;;-0.16;60.08;101584.75;6275221;22;20007;-65
2024/01/29 07:38:05;;;;;;;13.57;7.95;;;;;;;-0.20;60.62;101586.53;6275848;22;20298;-64
2024/01/29 07:40:32;;;;;;;13.77;8.70;;;;;;;-0.28;59.96;101572.56;6274878;22;20036;-66
2024/01/29 07:42:59;;;;;;;12.48;8.07;;;;;;;-0.18;59.95;101590.03;6275157;22;20004;-63
2024/01/29 07:45:25;;;;;;;11.68;7.25;;;;;;;-0.19;60.13;101582.13;6275527;22;20004;-58
2024/01/29 07:47:52;;;;;;;14.90;7.53;;;;;;;-0.36;59.89;101555.94;6275625;22;20087;-65
2024/01/29 07:50:17;;;;;;;12.10;7.65;;;;;;;-0.26;60.34;101581.31;6275863;22;20003;-65
2024/01/29 07:52:43;;;;;;;13.40;7.88;;;;;;;-0.49;60.20;101532.34;6272918;22;20060;-64
2024/01/29 07:55:09;;;;;;;12.95;8.02;;;;;;;-0.20;60.34;101580.41;6274627;22;20069;-64
2024/01/29 07:57:34;;;;;;;15.10;8.15;;;;;;;-0.19;60.35;101585.66;6275234;22;20008;-67
2024/01/29 08:00:00;;;;;;;16.98;7.90;;;;;;;-0.17;59.91;101575.09;6272654;22;20074;-68
2024/01/29 08:02:25;;;;;;;12.20;8.00;;;;;;;-0.51;60.87;101520.09;6277639;22;20010;-67
2024/01/29 08:04:51;;;;;;;19.02;9.05;;;;;;;-0.17;60.58;101577.72;6276373;22;20010;-67
2024/01/29 08:07:16;;;;;;;13.77;8.35;;;;;;;-0.14;59.94;101575.06;6276552;22;20011;-68
2024/01/29 08:09:42;;;;;;;11.80;7.63;;;;;;;-0.17;60.36;101573.34;6276145;22;20424;-68
2024/01/29 08:12:09;;;;;;;13.80;8.68;;;;;;;-0.11;60.29;101566.28;6278590;22;20059;-67
2024/01/29 08:14:35;;;;;;;13.70;8.32;;;;;;;-0.08;60.67;101569.78;6278635;22;20008;-66
2024/01/29 08:17:00;;;;;;;14.63;8.82;;;;;;;-0.04;60.00;101558.34;6278880;22;20010;-67
2024/01/29 08:19:26;;;;;;;13.23;7.95;;;;;;;-0.04;60.05;101567.97;6277118;22;20011;-68
2024/01/29 08:21:51;;;;;;;22.38;8.15;;;;;;;-0.06;59.82;101570.63;6277747;22;20014;-67
2024/01/29 08:24:20;;;;;;;14.48;7.95;;;;;;;-0.01;60.17;101575.84;6277660;22;20007;-67
2024/01/29 08:26:45;;;;;;;16.48;8.82;;;;;;;0.02;59.80;101565.31;6278451;22;20000;-65
2024/01/29 08:29:11;;;;;;;13.85;8.80;;;;;;;-0.06;59.93;101548.69;6278566;22;20831;-64
2024/01/29 08:31:38;;;;;;;13.82;8.23;;;;;;;0.09;59.57;101571.38;6277709;22;20050;-71
2024/01/29 08:34:04;;;;;;;16.55;8.30;;;;;;;0.06;59.80;101574.94;6276795;22;20004;-68
2024/01/29 08:36:30;;;;;;;14.45;8.32;;;;;;;-0.08;60.04;101553.09;6278115;22;20072;-66
2024/01/29 08:38:56;;;;;;;13.98;8.98;;;;;;;-0.15;60.20;101557.53;6274016;22;20078;-70
2024/01/29 08:41:21;;;;;;;16.33;8.98;;;;;;;-0.10;60.12;101571.56;6277078;22;20305;-60
2024/01/29 08:43:47;;;;;;;17.10;9.23;;;;;;;-0.18;60.21;101571.63;6278208;22;20019;-63
2024/01/29 08:46:12;;;;;;;15.77;9.13;;;;;;;-0.21;60.86;101574.28;6274294;22;20053;-64
2024/01/29 08:48:38;;;;;;;15.90;9.05;;;;;;;-0.22;60.49;101562.00;6277141;22;20467;-63
2024/01/29 08:51:04;;;;;;;16.52;9.23;;;;;;;-0.38;60.47;101548.06;6277682;22;20397;-66
2024/01/29 08:53:29;;;;;;;14.00;9.00;;;;;;;-0.31;61.20;101564.69;6277791;22;20008;-64
2024/01/29 08:55:55;;;;;;;14.10;8.73;;;;;;;-0.27;60.84;101569.03;6277914;22;20010;-63
2024/01/29 08:58:21;;;;;;;14.13;8.85;;;;;;;-0.28;61.11;101559.38;6278400;22;19999;-59
2024/01/29 09:00:52;;;;;;;14.13;8.45;;;;;;;-0.27;60.96;101552.38;6278634;22;20008;-55
2024/01/29 09:03:18;;;;;;;17.27;9.50;;;;;;;-0.20;60.60;101556.69;6278555;22;20053;-57
2024/01/29 09:05:44;;;;;;;18.48;9.70;;;;;;;-0.28;60.80;101537.47;6277987;22;20000;-56
2024/01/29 09:08:09;;;;;;;14.43;9.48;;;;;;;-0.21;60.87;101558.47;6277832;22;20011;-60
2024/01/29 09:10:35;;;;;;;17.35;9.57;;;;;;;-0.22;60.78;101567.25;6277322;22;20316;-60
2024/01/29 09:13:01;;;;;;;16.33;9.10;;;;;;;-0.22;61.19;101554.09;6275573;22;20329;-60
2024/01/29 09:15:27;;;;;;;14.75;8.95;;;;;;;-0.23;60.72;101554.09;6276529;22;20007;-60
2024/01/29 09:17:52;;;;;;;16.85;8.88;;;;;;;-0.18;61.05;101558.44;6275061;22;20412;-57
2024/01/29 09:20:18;;;;;;;15.77;9.20;;;;;;;-0.25;60.64;101526.91;6276559;22;20064;-67
2024/01/29 09:22:44;;;;;;;16.63;9.50;;;;;;;-0.26;61.48;101548.84;6276070;22;20003;-67
2024/01/29 09:25:09;;;;;;;14.77;9.00;;;;;;;-0.54;61.33;101507.81;6275499;22;20054;-66
2024/01/29 09:27:35;;;;;;;15.73;9.45;;;;;;;-0.48;61.28;101496.38;6275753;22;20007;-66
2024/01/29 09:30:02;;;;;;;15.02;9.75;;;;;;;-0.32;60.82;101544.50;6275026;22;20054;-68
2024/01/29 09:32:30;;;;;;;14.90;8.98;;;;;;;-0.30;61.33;101540.09;6275362;22;20008;-66
2024/01/29 09:34:56;;;;;;;15.13;8.95;;;;;;;-0.62;61.22;101481.56;6276143;22;20091;-64
2024/01/29 09:37:21;;;;;;;14.32;8.32;;;;;;;-0.36;61.24;101534.91;6275437;22;20006;-65
2024/01/29 09:39:47;;;;;;;16.45;8.90;;;;;;;-0.35;61.51;101537.53;6276288;22;20020;-61
2024/01/29 09:42:24;;;;;;;13.60;8.32;;;;;;;-0.29;62.22;101544.47;6275501;22;20086;-58
2024/01/29 09:44:54;;;;;;;14.75;8.02;;;;;;;-0.30;61.67;101540.09;6275627;22;20008;-58
2024/01/29 09:47:20;;;;;;;13.63;8.07;;;;;;;-0.65;61.26;101486.84;6276485;22;20011;-61
2024/01/29 09:49:47;;;;;;;15.15;7.93;;;;;;;-0.40;61.69;101527.91;6276092;22;20015;-58
2024/01/29 09:52:13;;;;;;;13.73;8.15;;;;;;;-0.36;61.39;101525.25;6274556;22;20007;-59
2024/01/29 09:54:40;;;;;;;14.98;8.13;;;;;;;-0.36;61.01;101522.63;6276163;22;20000;-56
2024/01/29 09:57:12;;;;;;;14.00;8.32;;;;;;;-0.41;61.04;101518.28;6275398;22;20014;-59
2024/01/29 09:59:40;;;;;;;13.65;7.82;;;;;;;-0.45;61.47;101520.94;6275570;22;20015;-58
2024/01/29 10:02:08;;;;;;;10.90;7.18;;;;;;;-0.46;61.34;101516.56;6275740;22;20412;-58
2024/01/29 10:04:33;;;;;;;12.98;7.22;;;;;;;-0.47;61.06;101509.53;6276452;22;20156;-60
2024/01/29 10:06:59;;;;;;;11.68;7.20;;;;;;;-0.54;60.96;101504.34;6275925;22;20007;-57
2024/01/29 10:09:25;;;;;;;11.02;7.35;;;;;;;-0.56;61.36;101509.59;6275603;22;20004;-53
2024/01/29 10:11:51;;;;;;;11.68;7.38;;;;;;;-0.59;61.50;101488.56;6275612;22;20080;-64
2024/01/29 10:14:26;;;;;;;12.73;7.68;;;;;;;-0.38;61.01;101507.72;6275844;22;20010;-58
2024/01/29 10:16:55;;;;;;;;;;;;;;;0.06;60.42;101508.19;6275632;22;20373;-59
2024/01/29 10:19:20;;;;;;;12.70;7.43;;;;;;;-0.26;60.12;101518.13;6275821;22;19973;-58
2024/01/29 10:21:46;;;;;;;10.48;6.85;;;;;;;-0.41;61.01;101502.47;6275574;22;20308;-61
2024/01/29 10:24:16;;;;;;;13.68;7.40;;;;;;;-0.34;60.65;101512.06;6275245;22;20035;-61
2024/01/29 10:26:42;;;;;;;10.77;7.00;;;;;;;-0.28;60.80;101506.75;6275160;22;20004;-53
2024/01/29 10:29:09;;;;;;;11.35;7.15;;;;;;;-0.24;60.22;101510.22;6275514;22;20411;-57
2024/01/29 10:31:35;;;;;;;12.48;7.60;;;;;;;-0.26;60.77;101486.53;6275191;22;20023;-60
2024/01/29 10:34:02;;;;;;;10.40;7.18;;;;;;;-0.20;60.56;101506.69;6273462;22;20011;-61
2024/01/29 10:36:29;;;;;;;9.02;6.53;;;;;;;-0.25;60.57;101497.97;6273973;22;20007;-62
2024/01/29 10:38:56;;;;;;;10.82;7.47;;;;;;;-0.29;60.45;101497.09;6274167;22;20054;-62
2024/01/29 10:41:23;;;;;;;13.10;7.70;;;;;;;-0.28;60.66;101492.72;6273931;22;20008;-65
2024/01/29 10:43:51;;;;;;;10.63;7.55;;;;;;;-0.30;60.79;101495.34;6272960;22;20354;-62
2024/01/29 10:46:21;;;;;;;9.95;6.82;;;;;;;-0.26;60.24;101502.34;6273947;22;20309;-63
2024/01/29 10:48:48;;;;;;;11.10;7.00;;;;;;;-0.36;60.32;101482.25;6275338;22;20089;-61
2024/01/29 10:51:15;;;;;;;10.38;7.07;;;;;;;-0.23;59.74;101497.06;6275853;22;20007;-60
2024/01/29 10:53:41;;;;;;;11.65;7.85;;;;;;;-0.30;60.25;101479.56;6275782;22;20393;-63
2024/01/29 10:56:08;;;;;;;11.38;6.60;;;;;;;-0.33;60.19;101485.75;6274998;22;20027;-58
2024/01/29 10:58:35;;;;;;;10.63;6.93;;;;;;;-0.34;60.50;101477.84;6275753;22;20011;-61
2024/01/29 11:01:01;;;;;;;10.63;7.03;;;;;;;-0.36;60.59;101464.72;6275360;22;19999;-61
2024/01/29 11:03:27;;;;;;;10.00;7.10;;;;;;;-0.41;60.61;101449.84;6275217;22;20019;-63
2024/01/29 11:05:59;;;;;;;11.68;7.15;;;;;;;-0.36;60.81;101469.09;6275061;22;19999;-63
2024/01/29 11:08:30;;;;;;;12.63;7.78;;;;;;;-0.39;60.59;101467.34;6275605;22;20003;-60
2024/01/29 11:10:57;;;;;;;10.13;7.18;;;;;;;-0.40;60.88;101460.34;6274961;22;20003;-61
2024/01/29 11:13:24;;;;;;;12.20;7.82;;;;;;;-0.31;60.65;101468.19;6275844;22;20057;-59